Terminal Aerodrome Forecast
Issued by NWS

Home | Current Version | Previous Version | Text Only | Print | Product List | Glossary On
Versions: 1 2 3 4 5 6 7 8 9 10 11 12 13 14
000
FTUS46 KLOX 251100 RRA
TAFSBA
TAF
KSBA 251159Z 2512/2612 34012KT P6SM SKC WS010/36035KT
      TEMPO 2512/2515 35015G25KT
     FM251800 32008KT P6SM SKC
     FM260100 36008KT P6SM SKC WS010/01030KT
     FM260900 VRB03KT P6SM SKC=

USA.gov is the U.S. government's official web portal to all federal, state and local government web resources and services.